Time;durP1;ratioP1;P1;durP2;ratioP2;P2;SDS_P1;SDS_P2;PMS_P1;PMS_P2;Temp;Humidity;BMP_temperature;BMP_pressure;BME280_temperature;BME280_humidity;BME280_pressure;Samples;Min_cycle;Max_cycle;Signal;HPM_P1;HPM_P2
2023/04/29 00:00:44;;;;;;;7.38;4.80;;;10.50;99.90;;;;;;5108634;28;20484;-46
2023/04/29 00:03:11;;;;;;;4.65;3.20;;;10.40;99.90;;;;;;5116149;27;20032;-46
2023/04/29 00:05:38;;;;;;;;;;;10.40;99.90;;;;;;5111024;28;20524;-46
2023/04/29 00:08:05;;;;;;;9.55;4.30;;;10.40;99.90;;;;;;5110886;28;19927;-45
2023/04/29 00:10:32;;;;;;;6.70;3.88;;;10.40;99.90;;;;;;5102039;28;20043;-45
2023/04/29 00:12:58;;;;;;;6.43;4.30;;;10.40;99.90;;;;;;5107094;28;20096;-46
2023/04/29 00:15:25;;;;;;;6.68;5.13;;;10.40;99.90;;;;;;5111445;28;20039;-46
2023/04/29 00:17:52;;;;;;;7.43;4.47;;;10.30;99.90;;;;;;5111902;27;20070;-45
2023/04/29 00:20:19;;;;;;;8.40;5.93;;;10.30;99.90;;;;;;5112082;28;20088;-45
2023/04/29 00:22:46;;;;;;;6.90;5.15;;;10.30;99.90;;;;;;5112506;28;20066;-46
2023/04/29 00:25:12;;;;;;;10.48;6.28;;;10.30;99.90;;;;;;5108982;28;20547;-46
2023/04/29 00:27:39;;;;;;;8.48;6.20;;;10.30;99.90;;;;;;5109321;28;20061;-45
2023/04/29 00:30:07;;;;;;;10.13;5.80;;;10.30;99.90;;;;;;5109477;28;20035;-46
2023/04/29 00:32:34;;;;;;;7.78;5.90;;;10.30;99.90;;;;;;5090917;28;20044;-46
2023/04/29 00:35:01;;;;;;;8.60;5.50;;;10.30;99.90;;;;;;5114366;28;20523;-45
2023/04/29 00:37:27;;;;;;;7.88;4.50;;;10.30;99.90;;;;;;5091798;28;20039;-45
2023/04/29 00:39:54;;;;;;;4.78;3.45;;;10.30;99.90;;;;;;5107704;28;20071;-45
2023/04/29 00:42:21;;;;;;;7.15;4.63;;;10.30;99.90;;;;;;5111036;28;20515;-47
2023/04/29 00:44:48;;;;;;;8.77;5.35;;;10.30;99.90;;;;;;5112747;28;20452;-46
2023/04/29 00:47:14;;;;;;;7.65;5.60;;;10.30;99.90;;;;;;5088706;28;20112;-45
2023/04/29 00:49:41;;;;;;;8.35;5.82;;;10.30;99.90;;;;;;5073072;28;20052;-46
2023/04/29 00:52:10;;;;;;;6.50;4.75;;;10.30;99.90;;;;;;5109697;28;20116;-46
2023/04/29 00:54:38;;;;;;;4.57;3.60;;;10.40;99.90;;;;;;5089646;28;20446;-45
2023/04/29 00:57:06;;;;;;;3.22;2.28;;;10.40;99.90;;;;;;5093036;28;20044;-46
2023/04/29 00:59:33;;;;;;;2.75;1.98;;;10.40;99.90;;;;;;5089902;28;20044;-45
2023/04/29 01:02:01;;;;;;;;;;;10.40;99.90;;;;;;5093885;27;20036;-45
2023/04/29 01:04:27;;;;;;;1.73;1.48;;;10.50;99.90;;;;;;5098014;28;20376;-46
2023/04/29 01:07:11;;;;;;;2.67;1.58;;;10.60;99.90;;;;;;5095334;28;20048;-46
2023/04/29 01:09:57;;;;;;;5.88;1.38;;;10.60;99.90;;;;;;5088031;28;20044;-46
2023/04/29 01:12:44;;;;;;;3.63;1.70;;;10.60;99.90;;;;;;5115388;27;20097;-45
2023/04/29 01:15:24;;;;;;;1.20;1.10;;;10.60;99.90;;;;;;5111473;28;20118;-46
2023/04/29 01:18:22;;;;;;;1.35;0.95;;;10.70;99.90;;;;;;5093690;28;20046;-46
2023/04/29 01:20:50;;;;;;;1.88;1.58;;;10.80;99.90;;;;;;5091505;28;20044;-45
2023/04/29 01:23:16;;;;;;;2.25;1.92;;;10.80;99.90;;;;;;5114436;28;20484;-46
2023/04/29 01:25:44;;;;;;;1.83;1.30;;;10.80;99.90;;;;;;5093561;28;20483;-45
2023/04/29 01:28:54;;;;;;;2.08;1.33;;;10.80;99.90;;;;;;5089752;28;20063;-46
2023/04/29 01:31:31;;;;;;;1.17;1.08;;;10.90;99.90;;;;;;5073284;28;20063;-47
2023/04/29 01:34:49;;;;;;;1.67;1.40;;;10.90;99.90;;;;;;5092094;28;20093;-45
2023/04/29 01:37:25;;;;;;;3.15;1.00;;;10.90;99.90;;;;;;5058317;27;20091;-46
2023/04/29 01:40:01;;;;;;;2.53;1.40;;;10.90;99.90;;;;;;5092747;28;20043;-46
2023/04/29 01:42:41;;;;;;;1.55;1.25;;;10.90;99.90;;;;;;5094781;28;20035;-46
2023/04/29 01:45:16;;;;;;;2.13;1.48;;;10.90;99.90;;;;;;5090982;28;20070;-47
2023/04/29 01:47:45;;;;;;;3.60;2.47;;;10.90;99.90;;;;;;5094577;28;20109;-46
2023/04/29 01:50:12;;;;;;;4.10;2.92;;;10.90;99.90;;;;;;5094346;27;20695;-46
2023/04/29 01:52:40;;;;;;;4.65;3.10;;;10.90;99.90;;;;;;5098240;28;20046;-46
2023/04/29 01:55:07;;;;;;;4.13;3.33;;;10.90;99.90;;;;;;5102434;28;20134;-46
2023/04/29 01:57:45;;;;;;;5.68;3.63;;;10.90;99.90;;;;;;5095653;28;20743;-45
2023/04/29 02:00:18;;;;;;;6.10;4.40;;;10.90;99.90;;;;;;5089187;28;20504;-45
2023/04/29 02:02:50;;;;;;;9.10;3.90;;;10.90;99.90;;;;;;5091330;28;20060;-45
2023/04/29 02:05:32;;;;;;;6.80;3.83;;;10.90;99.90;;;;;;5103695;28;20063;-46
2023/04/29 02:08:00;;;;;;;6.45;4.63;;;10.90;99.90;;;;;;5095566;28;20135;-45
2023/04/29 02:10:29;;;;;;;7.97;4.40;;;10.80;99.90;;;;;;5094160;27;20036;-45
2023/04/29 02:13:10;;;;;;;7.15;4.45;;;10.90;99.90;;;;;;5099483;28;20051;-46
2023/04/29 02:15:37;;;;;;;7.45;4.80;;;10.90;99.90;;;;;;5094868;28;20036;-45
2023/04/29 02:18:05;;;;;;;7.60;3.72;;;10.90;99.90;;;;;;5094852;28;20043;-46
2023/04/29 02:20:32;;;;;;;;;;;10.80;99.90;;;;;;5106928;28;20051;-45
2023/04/29 02:22:58;;;;;;;5.82;4.10;;;10.90;99.90;;;;;;5111315;28;19920;-46
2023/04/29 02:25:25;;;;;;;4.72;3.75;;;10.80;99.90;;;;;;5091875;28;20044;-46
2023/04/29 02:27:52;;;;;;;5.75;3.95;;;10.90;99.90;;;;;;5114840;27;20052;-46
2023/04/29 02:30:18;;;;;;;7.75;4.43;;;10.90;99.90;;;;;;5089460;28;20047;-46
2023/04/29 02:32:45;;;;;;;6.78;4.53;;;10.90;99.90;;;;;;5090757;28;20069;-46
2023/04/29 02:35:13;;;;;;;6.47;5.05;;;10.90;99.90;;;;;;5084814;28;20040;-45
2023/04/29 02:37:40;;;;;;;13.82;6.03;;;10.90;99.90;;;;;;5081920;28;20054;-46
2023/04/29 02:40:08;;;;;;;6.82;5.10;;;10.90;99.90;;;;;;5090404;28;20050;-48
2023/04/29 02:42:34;;;;;;;;;;;10.80;99.90;;;;;;5113826;27;20040;-46
2023/04/29 02:45:01;;;;;;;9.98;6.75;;;10.80;99.90;;;;;;5113510;27;19924;-45
2023/04/29 02:47:28;;;;;;;8.50;6.22;;;10.80;99.90;;;;;;5094457;28;20054;-46
2023/04/29 02:49:55;;;;;;;10.60;7.18;;;10.70;99.90;;;;;;5094212;27;20043;-46
2023/04/29 02:52:22;;;;;;;11.82;7.32;;;10.70;99.90;;;;;;5114371;27;20039;-45
2023/04/29 02:54:48;;;;;;;;;;;10.70;99.90;;;;;;5094654;28;20039;-46
2023/04/29 02:57:16;;;;;;;13.02;7.00;;;10.60;99.90;;;;;;5094535;28;19969;-46
2023/04/29 02:59:43;;;;;;;10.18;6.93;;;10.60;99.90;;;;;;5094276;28;20043;-46
2023/04/29 03:02:09;;;;;;;9.93;6.55;;;10.60;99.90;;;;;;5094752;28;20142;-45
2023/04/29 03:04:38;;;;;;;11.60;6.60;;;10.60;99.90;;;;;;5090973;28;20488;-46
2023/04/29 03:07:06;;;;;;;8.85;6.53;;;10.60;99.90;;;;;;5092668;27;20100;-46
2023/04/29 03:09:33;;;;;;;10.05;5.88;;;10.60;99.90;;;;;;5092295;28;20249;-46
2023/04/29 03:12:01;;;;;;;7.75;5.32;;;10.60;99.90;;;;;;5093859;28;20051;-46
2023/04/29 03:14:29;;;;;;;9.55;5.75;;;10.60;99.90;;;;;;5089103;28;20040;-46
2023/04/29 03:16:57;;;;;;;9.73;6.13;;;10.60;99.90;;;;;;5095816;28;20044;-45
2023/04/29 03:19:24;;;;;;;7.50;5.57;;;10.60;99.90;;;;;;5110890;28;20038;-46
2023/04/29 03:21:51;;;;;;;6.82;4.90;;;10.60;99.90;;;;;;5091606;28;20141;-45
2023/04/29 03:24:20;;;;;;;8.25;4.28;;;10.60;99.90;;;;;;5095510;27;20039;-46
2023/04/29 03:26:47;;;;;;;5.88;4.38;;;10.60;99.90;;;;;;5091234;28;20127;-45
2023/04/29 03:29:13;;;;;;;5.15;3.85;;;10.60;99.90;;;;;;5093672;28;20080;-46
2023/04/29 03:31:40;;;;;;;6.25;4.05;;;10.50;99.90;;;;;;5089829;28;20040;-45
2023/04/29 03:34:07;;;;;;;5.28;3.72;;;10.60;99.90;;;;;;5091193;28;20094;-45
2023/04/29 03:36:38;;;;;;;6.15;3.70;;;10.60;99.90;;;;;;5081657;28;20088;-45
2023/04/29 03:39:06;;;;;;;6.28;4.10;;;10.60;99.90;;;;;;5090212;28;20424;-46
2023/04/29 03:41:33;;;;;;;4.88;4.10;;;10.60;99.90;;;;;;5093192;28;20066;-45
2023/04/29 03:44:00;;;;;;;8.38;4.38;;;10.60;99.90;;;;;;5107018;28;20488;-45
2023/04/29 03:46:28;;;;;;;5.95;3.85;;;10.60;99.90;;;;;;5089788;28;20039;-45
2023/04/29 03:48:55;;;;;;;4.68;3.60;;;10.60;99.90;;;;;;5093278;28;20118;-46
2023/04/29 03:51:23;;;;;;;6.63;3.90;;;10.50;99.90;;;;;;5107032;27;20484;-46
2023/04/29 03:53:58;;;;;;;5.63;4.30;;;10.50;99.90;;;;;;5096203;28;20036;-46
2023/04/29 03:56:25;;;;;;;5.70;4.20;;;10.50;99.90;;;;;;5092962;28;20544;-45
2023/04/29 03:58:52;;;;;;;5.50;4.25;;;10.50;99.90;;;;;;5094220;28;20050;-46
2023/04/29 04:01:21;;;;;;;6.22;3.63;;;10.40;99.90;;;;;;5098167;28;20032;-46
2023/04/29 04:03:48;;;;;;;4.63;3.80;;;10.40;99.90;;;;;;5093487;28;20322;-45
2023/04/29 04:06:15;;;;;;;5.18;3.83;;;10.40;99.90;;;;;;5098597;28;20039;-46
2023/04/29 04:08:42;;;;;;;5.07;3.97;;;10.40;99.90;;;;;;5091967;28;20515;-46
2023/04/29 04:11:14;;;;;;;5.80;4.28;;;10.40;99.90;;;;;;5093232;28;20044;-45
2023/04/29 04:13:44;;;;;;;5.38;3.50;;;10.50;99.90;;;;;;5094658;28;20462;-46
2023/04/29 04:16:11;;;;;;;6.55;3.78;;;10.50;99.90;;;;;;5095410;28;20063;-46
2023/04/29 04:18:39;;;;;;;7.25;4.30;;;10.50;99.90;;;;;;5090023;28;20074;-46
2023/04/29 04:21:10;;;;;;;6.00;3.80;;;10.50;99.90;;;;;;5099455;22;20062;-46
2023/04/29 04:23:39;;;;;;;5.25;3.83;;;10.60;99.90;;;;;;5082920;28;20050;-48
2023/04/29 04:26:09;;;;;;;5.90;3.97;;;10.60;99.90;;;;;;5080705;28;20073;-48
2023/04/29 04:28:55;;;;;;;8.75;3.95;;;10.60;99.90;;;;;;5083484;28;20466;-49
2023/04/29 04:31:29;;;;;;;5.10;3.60;;;10.60;99.90;;;;;;5080713;28;20495;-48
2023/04/29 04:33:58;;;;;;;5.35;3.95;;;10.70;99.90;;;;;;5086813;28;20038;-47
2023/04/29 04:36:26;;;;;;;6.45;4.32;;;10.70;99.90;;;;;;5081528;28;20039;-49
2023/04/29 04:38:54;;;;;;;8.07;5.00;;;10.80;99.90;;;;;;5086171;28;20058;-48
2023/04/29 04:41:21;;;;;;;6.00;4.50;;;10.80;99.90;;;;;;5083815;28;20040;-47
2023/04/29 04:43:49;;;;;;;6.15;4.60;;;10.80;99.90;;;;;;5085197;28;20047;-48
2023/04/29 04:46:34;;;;;;;7.00;4.53;;;10.80;99.90;;;;;;5086435;28;20086;-47
2023/04/29 04:49:10;;;;;;;7.82;4.53;;;10.90;99.90;;;;;;5083297;28;20093;-48
2023/04/29 04:51:44;;;;;;;11.63;5.65;;;10.90;99.90;;;;;;5080861;28;20044;-48
2023/04/29 04:54:11;;;;;;;10.45;4.47;;;11.00;99.90;;;;;;5078799;28;20470;-48
2023/04/29 04:56:37;;;;;;;8.90;4.43;;;11.10;99.90;;;;;;5086358;28;20054;-47
2023/04/29 04:59:06;;;;;;;7.40;4.70;;;11.10;99.90;;;;;;5078660;28;20086;-47
2023/04/29 05:01:35;;;;;;;6.45;4.30;;;11.20;99.90;;;;;;5083296;28;20105;-48
2023/04/29 05:04:02;;;;;;;6.47;4.10;;;11.30;99.90;;;;;;5092851;28;20499;-48
2023/04/29 05:06:29;;;;;;;;;;;11.30;99.90;;;;;;5084248;28;20049;-48
2023/04/29 05:08:56;;;;;;;3.92;3.45;;;11.40;99.90;;;;;;5081153;28;19939;-47
2023/04/29 05:11:23;;;;;;;7.38;3.47;;;11.40;99.90;;;;;;5084182;28;20464;-47
2023/04/29 05:14:11;;;;;;;5.00;3.30;;;11.40;99.90;;;;;;5081545;28;20056;-48
2023/04/29 05:16:38;;;;;;;3.80;3.03;;;11.40;99.90;;;;;;5083172;28;20051;-47
2023/04/29 05:19:08;;;;;;;3.88;2.60;;;11.40;99.90;;;;;;5087387;28;20031;-47
2023/04/29 05:21:37;;;;;;;3.67;2.42;;;11.50;99.90;;;;;;5082360;28;20044;-48
2023/04/29 05:24:05;;;;;;;4.35;2.58;;;11.50;99.90;;;;;;5080791;28;20496;-47
2023/04/29 05:26:32;;;;;;;;;;;11.60;99.90;;;;;;5098135;28;20067;-47
2023/04/29 05:29:00;;;;;;;5.43;3.25;;;11.80;99.90;;;;;;5084451;28;19920;-48
2023/04/29 05:31:31;;;;;;;5.65;2.80;;;11.90;99.90;;;;;;5082570;28;20036;-48
2023/04/29 05:34:00;;;;;;;3.20;2.05;;;12.00;99.90;;;;;;5089172;28;20051;-47
2023/04/29 05:36:27;;;;;;;3.33;2.50;;;12.10;99.90;;;;;;5084787;28;20520;-47
2023/04/29 05:38:56;;;;;;;2.92;2.45;;;12.00;99.90;;;;;;5084099;28;20166;-48
2023/04/29 05:41:23;;;;;;;3.20;2.40;;;11.90;99.90;;;;;;5086756;28;20040;-48
2023/04/29 05:44:10;;;;;;;2.92;2.47;;;11.90;99.90;;;;;;5101612;28;20071;-50
2023/04/29 05:46:37;;;;;;;3.33;2.42;;;11.90;99.90;;;;;;5089468;28;20101;-48
2023/04/29 05:49:04;;;;;;;2.33;2.10;;;12.00;99.90;;;;;;5090837;28;20101;-47
2023/04/29 05:51:31;;;;;;;2.83;2.10;;;12.00;99.90;;;;;;5086309;28;20074;-47
2023/04/29 05:53:59;;;;;;;2.50;2.30;;;12.00;99.90;;;;;;5095054;28;20458;-48
2023/04/29 05:56:27;;;;;;;2.97;2.58;;;12.00;99.90;;;;;;5086654;28;20036;-47
2023/04/29 05:58:54;;;;;;;2.20;2.00;;;12.10;99.90;;;;;;5086375;28;20081;-49
2023/04/29 06:01:22;;;;;;;3.05;2.08;;;12.10;99.90;;;;;;5086805;28;20492;-47
2023/04/29 06:03:49;;;;;;;3.53;2.60;;;12.10;99.90;;;;;;5094028;28;20047;-47
2023/04/29 06:06:34;;;;;;;3.42;2.83;;;12.10;99.90;;;;;;5101495;28;20566;-48
2023/04/29 06:09:17;;;;;;;3.95;2.90;;;12.10;99.90;;;;;;5099460;28;20076;-47
2023/04/29 06:11:55;;;;;;;4.15;3.00;;;11.80;99.90;;;;;;5085730;28;20478;-48
2023/04/29 06:14:22;;;;;;;3.30;2.97;;;11.80;99.90;;;;;;5085018;28;20044;-50
2023/04/29 06:16:49;;;;;;;4.05;3.13;;;11.80;99.90;;;;;;5086626;28;20039;-49
2023/04/29 06:19:16;;;;;;;4.88;3.85;;;11.70;99.90;;;;;;5089389;28;20100;-49
2023/04/29 06:21:43;;;;;;;5.88;3.83;;;11.70;99.90;;;;;;5091195;28;20499;-47
2023/04/29 06:24:09;;;;;;;5.47;3.65;;;11.60;99.90;;;;;;5084968;28;20040;-47
2023/04/29 06:26:36;;;;;;;6.28;4.22;;;11.60;99.90;;;;;;5085900;28;20127;-49
2023/04/29 06:29:03;;;;;;;8.18;4.05;;;11.70;99.90;;;;;;5103620;28;20035;-48
2023/04/29 06:31:30;;;;;;;;;;;11.60;99.90;;;;;;5085867;28;20047;-47
2023/04/29 06:34:01;;;;;;;4.95;3.58;;;11.80;99.90;;;;;;5092837;28;20372;-48
2023/04/29 06:36:29;;;;;;;5.82;4.78;;;12.00;99.90;;;;;;5085160;28;20492;-47
2023/04/29 06:39:04;;;;;;;6.00;4.07;;;12.20;99.90;;;;;;5082653;28;20040;-47
2023/04/29 06:42:06;;;;;;;5.53;3.97;;;12.30;99.90;;;;;;5103511;28;20054;-48
2023/04/29 06:44:51;;;;;;;11.93;8.02;;;12.20;99.90;;;;;;5103246;28;20078;-47
2023/04/29 06:47:27;;;;;;;7.90;4.70;;;12.00;99.90;;;;;;5086857;28;20089;-47
2023/04/29 06:50:05;;;;;;;25.95;14.48;;;11.90;99.90;;;;;;5082789;28;20040;-47
2023/04/29 06:52:32;;;;;;;;;;;11.70;99.90;;;;;;5093173;28;20050;-48
2023/04/29 06:54:59;;;;;;;9.57;6.28;;;11.80;99.90;;;;;;5084845;28;20383;-48
2023/04/29 06:57:26;;;;;;;7.07;5.50;;;12.10;99.90;;;;;;5099028;28;20055;-47
2023/04/29 06:59:53;;;;;;;5.38;4.30;;;12.60;99.90;;;;;;5101749;28;20096;-48
2023/04/29 07:02:20;;;;;;;7.25;3.95;;;13.00;99.90;;;;;;5101158;28;20035;-47
2023/04/29 07:04:48;;;;;;;3.95;3.10;;;13.40;99.90;;;;;;5087644;28;20618;-48
2023/04/29 07:07:15;;;;;;;5.55;3.63;;;13.90;99.90;;;;;;5083042;28;20062;-47
2023/04/29 07:09:42;;;;;;;6.53;3.35;;;14.30;99.90;;;;;;5082638;28;20074;-48
2023/04/29 07:12:09;;;;;;;9.98;3.30;;;14.60;99.90;;;;;;5084732;28;20044;-47
2023/04/29 07:14:36;;;;;;;5.18;2.88;;;14.40;99.90;;;;;;5098553;28;20036;-47
2023/04/29 07:17:03;;;;;;;4.00;2.95;;;14.20;99.90;;;;;;5103692;28;20052;-47
2023/04/29 07:19:30;;;;;;;2.92;2.50;;;14.00;99.90;;;;;;5091627;28;20496;-48
2023/04/29 07:21:57;;;;;;;3.60;2.17;;;13.80;99.90;;;;;;5078301;28;20043;-48
2023/04/29 07:24:25;;;;;;;2.60;1.77;;;13.70;99.90;;;;;;5079241;28;20044;-47
2023/04/29 07:26:52;;;;;;;4.75;2.08;;;13.60;99.90;;;;;;5086620;28;20040;-47
2023/04/29 07:29:18;;;;;;;4.00;2.55;;;13.50;99.90;;;;;;5086244;28;20074;-47
2023/04/29 07:31:45;;;;;;;3.75;2.70;;;13.40;99.90;;;;;;5075129;28;20044;-49
2023/04/29 07:34:12;;;;;;;8.25;3.42;;;13.30;99.90;;;;;;5090368;28;20047;-48
2023/04/29 07:36:39;;;;;;;6.93;2.70;;;13.20;99.90;;;;;;5101406;28;20035;-47
2023/04/29 07:39:06;;;;;;;4.32;2.95;;;13.10;99.90;;;;;;5079272;28;20058;-47
2023/04/29 07:41:32;;;;;;;5.57;3.05;;;12.90;99.90;;;;;;5085565;28;20048;-48
2023/04/29 07:43:59;;;;;;;4.70;3.13;;;12.70;99.90;;;;;;5089898;28;20096;-47
2023/04/29 07:46:26;;;;;;;4.95;3.20;;;12.60;99.90;;;;;;5082725;28;20047;-48
2023/04/29 07:48:52;;;;;;;6.13;2.72;;;12.60;99.90;;;;;;5090268;28;20060;-47
2023/04/29 07:51:20;;;;;;;5.55;3.38;;;12.60;99.90;;;;;;5092065;28;20452;-47
2023/04/29 07:53:47;;;;;;;;;;;12.70;99.90;;;;;;5099308;28;20044;-48
2023/04/29 07:56:15;;;;;;;4.10;2.90;;;12.90;99.90;;;;;;5102196;28;19924;-48
2023/04/29 07:58:41;;;;;;;5.40;3.47;;;13.10;99.90;;;;;;5100025;28;20040;-48
2023/04/29 08:01:10;;;;;;;5.03;3.40;;;13.60;99.90;;;;;;5083792;28;20040;-47
2023/04/29 08:03:38;;;;;;;6.43;3.10;;;14.10;99.90;;;;;;5092731;28;20381;-48
2023/04/29 08:06:07;;;;;;;4.50;2.70;;;14.80;99.90;;;;;;5083557;28;20065;-48
2023/04/29 08:08:34;;;;;;;;;;;15.20;99.90;;;;;;5099598;28;20059;-48
2023/04/29 08:11:01;;;;;;;4.55;2.22;;;15.60;99.90;;;;;;5089881;28;19923;-48
2023/04/29 08:13:28;;;;;;;4.07;2.15;;;15.80;99.90;;;;;;5101005;28;20453;-48
2023/04/29 08:15:55;;;;;;;2.63;2.13;;;15.70;99.90;;;;;;5090461;28;20047;-48
2023/04/29 08:18:21;;;;;;;2.72;2.13;;;15.80;99.90;;;;;;5084250;28;20641;-48
2023/04/29 08:20:48;;;;;;;3.65;2.40;;;16.10;99.90;;;;;;5102188;28;20450;-51
2023/04/29 08:23:15;;;;;;;3.90;2.63;;;16.30;99.90;;;;;;5098430;28;20032;-48
2023/04/29 08:25:42;;;;;;;4.38;2.63;;;16.50;99.90;;;;;;5098907;28;20088;-47
2023/04/29 08:28:09;;;;;;;5.82;2.30;;;16.90;99.90;;;;;;5100563;28;20389;-47
2023/04/29 08:30:38;;;;;;;5.55;2.42;;;16.90;99.90;;;;;;5099845;28;20165;-47
2023/04/29 08:33:05;;;;;;;5.90;1.88;;;16.90;99.90;;;;;;5100213;28;20123;-48
2023/04/29 08:35:32;;;;;;;2.03;1.70;;;17.00;99.90;;;;;;5102926;28;20375;-49
2023/04/29 08:37:59;;;;;;;2.75;1.90;;;17.20;99.90;;;;;;5100522;28;20335;-47
2023/04/29 08:40:26;;;;;;;2.35;1.73;;;16.90;99.90;;;;;;5098049;28;20086;-48
2023/04/29 08:42:54;;;;;;;5.30;2.15;;;16.50;99.90;;;;;;5099814;28;20061;-48
2023/04/29 08:45:23;;;;;;;2.97;2.40;;;16.30;99.90;;;;;;5100004;28;20165;-48
2023/04/29 08:47:51;;;;;;;4.55;2.08;;;15.90;99.90;;;;;;5100506;28;20067;-48
2023/04/29 08:50:18;;;;;;;2.10;1.88;;;15.70;99.90;;;;;;5101682;28;20097;-48
2023/04/29 08:52:45;;;;;;;3.25;2.08;;;15.60;99.90;;;;;;5106603;28;20072;-48
2023/04/29 08:55:11;;;;;;;3.13;1.83;;;15.30;99.90;;;;;;5099520;28;20452;-48
2023/04/29 08:57:40;;;;;;;2.65;2.13;;;15.30;99.90;;;;;;5097770;28;20465;-48
2023/04/29 09:00:12;;;;;;;2.33;1.60;;;15.30;99.90;;;;;;5099888;28;20049;-48
2023/04/29 09:02:49;;;;;;;1.88;1.27;;;15.30;99.90;;;;;;5098049;28;20040;-47
2023/04/29 09:05:17;;;;;;;1.10;0.93;;;15.30;99.90;;;;;;5096852;28;20445;-47
2023/04/29 09:07:45;;;;;;;1.27;1.08;;;15.20;99.90;;;;;;5099545;28;20075;-47
2023/04/29 09:10:13;;;;;;;3.17;1.40;;;15.20;99.90;;;;;;5098452;28;20071;-47
2023/04/29 09:12:40;;;;;;;1.85;1.55;;;15.10;99.90;;;;;;5095498;28;20093;-48
2023/04/29 09:15:07;;;;;;;1.92;1.38;;;15.20;99.90;;;;;;5099597;28;20040;-47
2023/04/29 09:17:37;;;;;;;;;;;15.30;99.90;;;;;;5105228;28;20132;-48
2023/04/29 09:20:19;;;;;;;2.45;1.60;;;15.40;99.90;;;;;;5100618;28;19928;-48
2023/04/29 09:22:51;;;;;;;3.72;1.33;;;15.70;99.90;;;;;;5097569;28;20066;-47
2023/04/29 09:25:18;;;;;;;1.80;1.20;;;15.90;99.90;;;;;;5098417;28;20112;-47
2023/04/29 09:27:45;;;;;;;3.17;1.73;;;15.80;99.90;;;;;;5097940;28;20035;-47
2023/04/29 09:30:12;;;;;;;2.03;1.63;;;15.20;99.90;;;;;;5093678;28;20069;-56
2023/04/29 09:32:39;;;;;;;1.95;1.67;;;15.00;99.90;;;;;;5098653;28;20093;-47
2023/04/29 09:35:23;;;;;;;;;;;15.10;99.90;;;;;;5094368;28;20052;-48
2023/04/29 09:37:53;;;;;;;2.80;1.60;;;15.10;99.90;;;;;;5096292;28;19945;-47
2023/04/29 09:40:33;;;;;;;3.20;2.05;;;15.20;99.90;;;;;;5098080;28;20032;-47
2023/04/29 09:43:17;;;;;;;3.10;2.00;;;15.30;99.90;;;;;;5093759;28;20071;-48
2023/04/29 09:45:46;;;;;;;6.30;2.25;;;15.60;99.90;;;;;;5093819;28;20127;-48
2023/04/29 09:48:14;;;;;;;2.58;1.70;;;15.90;99.90;;;;;;5106271;28;20036;-48
2023/04/29 09:50:42;;;;;;;6.00;2.15;;;16.10;99.90;;;;;;5095725;28;20063;-47
2023/04/29 09:53:10;;;;;;;2.10;1.40;;;16.10;99.90;;;;;;5093409;28;20128;-48
2023/04/29 09:55:52;;;;;;;3.55;1.80;;;16.10;99.90;;;;;;5094733;28;20044;-48
2023/04/29 09:58:35;;;;;;;3.40;1.83;;;16.20;99.90;;;;;;5093391;28;20103;-49
2023/04/29 10:01:03;;;;;;;2.28;2.05;;;16.50;99.90;;;;;;5097005;28;20051;-47
2023/04/29 10:03:35;;;;;;;3.83;2.75;;;16.30;99.90;;;;;;5093423;28;20047;-48
2023/04/29 10:06:04;;;;;;;2.33;1.80;;;16.50;99.90;;;;;;5093043;28;20048;-49
2023/04/29 10:08:32;;;;;;;2.95;1.60;;;16.80;99.90;;;;;;5094784;28;20443;-48
2023/04/29 10:11:01;;;;;;;3.45;1.92;;;17.00;99.90;;;;;;5093037;28;20123;-48
2023/04/29 10:13:28;;;;;;;3.88;1.70;;;17.30;99.90;;;;;;5093409;28;20075;-49
2023/04/29 10:15:57;;;;;;;;;;;17.50;99.90;;;;;;5101870;28;20092;-48
2023/04/29 10:18:36;;;;;;;1.88;1.75;;;17.90;99.90;;;;;;5099735;28;19924;-47
2023/04/29 10:21:06;;;;;;;4.18;2.10;;;18.30;99.90;;;;;;5100585;28;20051;-49
2023/04/29 10:23:33;;;;;;;6.15;2.05;;;18.40;99.90;;;;;;5106383;28;20063;-48
2023/04/29 10:26:02;;;;;;;;;;;18.20;99.90;;;;;;5101725;28;20449;-49
2023/04/29 10:28:32;;;;;;;1.30;1.20;;;17.90;99.90;;;;;;5092795;28;19948;-50
2023/04/29 10:31:03;;;;;;;1.75;1.48;;;17.70;99.90;;;;;;5092798;28;20466;-48
2023/04/29 10:33:32;;;;;;;4.15;1.50;;;17.40;99.90;;;;;;5093145;28;20043;-47
2023/04/29 10:36:00;;;;;;;3.60;1.30;;;17.30;99.90;;;;;;5095056;28;20115;-48
2023/04/29 10:38:33;;;;;;;2.60;1.73;;;17.20;99.90;;;;;;5074307;22;20045;-46
2023/04/29 10:41:08;;;;;;;1.77;1.42;;;17.10;99.90;;;;;;5064594;28;20068;-49
2023/04/29 10:43:35;;;;;;;4.90;1.92;;;16.80;99.90;;;;;;5071988;28;20044;-47
2023/04/29 10:46:23;;;;;;;2.22;1.60;;;16.80;99.90;;;;;;5072580;28;20044;-47
2023/04/29 10:48:55;;;;;;;2.50;1.67;;;16.70;99.90;;;;;;5065971;28;20060;-46
2023/04/29 10:51:28;;;;;;;1.98;1.40;;;16.50;99.90;;;;;;5072532;28;20036;-46
2023/04/29 10:54:02;;;;;;;4.18;1.88;;;16.60;99.90;;;;;;5069657;28;20036;-46
2023/04/29 10:56:41;;;;;;;1.13;1.02;;;17.00;99.90;;;;;;5072127;28;20037;-46
2023/04/29 10:59:13;;;;;;;1.58;1.10;;;17.60;99.90;;;;;;5070535;28;20048;-46
2023/04/29 11:01:50;;;;;;;0.52;0.50;;;17.70;99.90;;;;;;5066107;28;20062;-46
2023/04/29 11:04:19;;;;;;;1.90;0.82;;;17.80;99.90;;;;;;5064175;28;20040;-46
2023/04/29 11:06:50;;;;;;;4.63;1.23;;;18.20;99.90;;;;;;5072159;28;20044;-46
2023/04/29 11:09:23;;;;;;;1.58;0.82;;;18.60;99.90;;;;;;5069420;28;20033;-46
2023/04/29 11:12:04;;;;;;;1.25;0.90;;;19.10;99.90;;;;;;5071805;28;20045;-46
2023/04/29 11:14:39;;;;;;;1.50;0.80;;;19.50;99.90;;;;;;5065655;28;20098;-46
2023/04/29 11:17:14;;;;;;;1.70;0.60;;;20.00;99.90;;;;;;5062878;28;20472;-47
2023/04/29 11:19:51;;;;;;;1.23;0.60;;;20.10;99.90;;;;;;5071618;28;20451;-46
2023/04/29 11:22:21;;;;;;;2.17;1.05;;;20.40;99.90;;;;;;5062978;28;20033;-46
2023/04/29 11:25:08;;;;;;;1.42;0.73;;;20.00;99.90;;;;;;5071606;28;20068;-47
2023/04/29 11:27:37;;;;;;;0.90;0.60;;;19.60;99.90;;;;;;5060557;28;20041;-45
2023/04/29 11:30:05;;;;;;;1.42;0.60;;;19.10;99.90;;;;;;5053196;28;20079;-47
2023/04/29 11:32:40;;;;;;;3.60;1.00;;;18.60;99.90;;;;;;5072063;28;20443;-45
2023/04/29 11:35:11;;;;;;;1.27;0.77;;;18.00;99.90;;;;;;5069569;28;20583;-46
2023/04/29 11:37:39;;;;;;;1.77;0.73;;;17.00;99.90;;;;;;5070638;28;20106;-46
2023/04/29 11:40:06;;;;;;;1.08;0.60;;;16.40;99.90;;;;;;5069520;28;20092;-47
2023/04/29 11:42:35;;;;;;;;;;;15.90;99.90;;;;;;5072301;28;20489;-46
2023/04/29 11:45:02;;;;;;;3.47;1.02;;;15.50;99.90;;;;;;5071638;28;20325;-46
2023/04/29 11:47:30;;;;;;;4.00;1.50;;;15.20;99.90;;;;;;5071330;28;20551;-46
2023/04/29 11:50:08;;;;;;;4.47;1.50;;;14.90;99.90;;;;;;5064772;28;20493;-45
2023/04/29 11:52:37;;;;;;;5.55;1.45;;;14.70;99.90;;;;;;5070171;28;20036;-47
2023/04/29 11:55:05;;;;;;;3.35;1.17;;;14.60;99.90;;;;;;5071087;28;20068;-50
2023/04/29 11:57:31;;;;;;;3.33;1.20;;;14.50;99.90;;;;;;5071027;28;20106;-45
2023/04/29 11:59:58;;;;;;;4.45;0.90;;;14.70;99.90;;;;;;5070706;28;20036;-45
2023/04/29 12:02:32;;;;;;;2.58;0.80;;;14.70;99.90;;;;;;5068229;28;20044;-47
2023/04/29 12:05:04;;;;;;;1.95;1.20;;;14.90;99.90;;;;;;5070749;28;20050;-45
2023/04/29 12:07:31;;;;;;;3.42;0.90;;;15.10;99.90;;;;;;5071056;28;20032;-45
2023/04/29 12:09:58;;;;;;;3.10;0.77;;;15.40;99.90;;;;;;5066482;28;20069;-46
2023/04/29 12:12:30;;;;;;;1.45;0.52;;;15.60;99.90;;;;;;5070998;28;20165;-45
2023/04/29 12:14:57;;;;;;;1.63;0.70;;;15.80;99.90;;;;;;5070529;28;20067;-45
2023/04/29 12:17:24;;;;;;;3.53;0.60;;;16.30;99.90;;;;;;5070005;28;20067;-48
2023/04/29 12:19:51;;;;;;;1.45;0.73;;;17.00;99.90;;;;;;5068559;28;20048;-47
2023/04/29 12:22:19;;;;;;;1.80;0.90;;;17.50;99.90;;;;;;5069656;28;20044;-46
2023/04/29 12:24:46;;;;;;;0.60;0.60;;;17.50;99.90;;;;;;5070733;28;20477;-46
2023/04/29 12:27:13;;;;;;;0.60;0.60;;;17.60;99.90;;;;;;5067284;28;20090;-45
2023/04/29 12:29:39;;;;;;;1.05;0.50;;;17.60;99.90;;;;;;5070245;28;20071;-46
2023/04/29 12:32:07;;;;;;;1.25;0.50;;;17.80;99.90;;;;;;5070730;28;20048;-46
2023/04/29 12:34:34;;;;;;;0.70;0.50;;;17.80;99.90;;;;;;5070482;28;20090;-47
2023/04/29 12:37:01;;;;;;;1.30;0.65;;;18.20;99.90;;;;;;5069407;28;20053;-46
2023/04/29 12:39:29;;;;;;;2.17;0.50;;;18.20;99.90;;;;;;5063911;28;20110;-46
2023/04/29 12:42:00;;;;;;;1.95;0.55;;;18.30;99.90;;;;;;5070491;28;20068;-46
2023/04/29 12:44:37;;;;;;;1.35;0.50;;;18.10;99.90;;;;;;5066918;28;20098;-48
2023/04/29 12:47:12;;;;;;;3.35;0.88;;;18.00;99.90;;;;;;5068820;28;20056;-46
2023/04/29 12:49:46;;;;;;;0.75;0.60;;;17.90;99.90;;;;;;5072091;28;20051;-46
2023/04/29 12:52:13;;;;;;;0.60;0.50;;;17.60;99.90;;;;;;5072043;28;20049;-46
2023/04/29 12:54:42;;;;;;;0.85;0.70;;;17.40;99.90;;;;;;5069514;28;20079;-47
2023/04/29 12:57:09;;;;;;;4.43;1.15;;;17.10;99.90;;;;;;5073219;28;20098;-47
2023/04/29 12:59:37;;;;;;;1.40;1.17;;;17.00;99.90;;;;;;5074403;28;20394;-46
2023/04/29 13:02:04;;;;;;;1.83;1.20;;;17.00;99.90;;;;;;5049512;28;20044;-46
2023/04/29 13:04:30;;;;;;;3.88;1.15;;;17.00;99.90;;;;;;5074721;28;20068;-45